Time;durP1;ratioP1;P1;durP2;ratioP2;P2;SDS_P1;SDS_P2;PMS_P1;PMS_P2;Temp;Humidity;BMP_temperature;BMP_pressure;BME280_temperature;BME280_humidity;BME280_pressure;Samples;Min_cycle;Max_cycle;Signal;HPM_P1;HPM_P2
2022/02/07 00:00:43;;;;;;;9.83;2.40;;;5.80;99.90;;;;;;5075081;28;20289;-56
2022/02/07 00:03:18;;;;;;;13.13;2.60;;;5.80;99.90;;;;;;5075044;28;20987;-56
2022/02/07 00:05:46;;;;;;;5.30;1.47;;;5.80;99.90;;;;;;5070540;28;20219;-57
2022/02/07 00:08:14;;;;;;;9.77;1.70;;;5.70;99.90;;;;;;5076959;28;20867;-58
2022/02/07 00:10:41;;;;;;;6.97;2.00;;;5.60;99.90;;;;;;5073067;28;20233;-57
2022/02/07 00:13:08;;;;;;;7.07;1.60;;;5.50;99.90;;;;;;5058887;28;20734;-57
2022/02/07 00:15:36;;;;;;;6.57;1.37;;;5.60;99.90;;;;;;5080798;28;20238;-58
2022/02/07 00:18:05;;;;;;;7.37;1.20;;;5.60;99.90;;;;;;5055698;28;20671;-57
2022/02/07 00:20:33;;;;;;;7.57;1.13;;;5.50;99.90;;;;;;5075213;28;20275;-57
2022/02/07 00:23:01;;;;;;;5.80;1.03;;;5.40;99.90;;;;;;5074230;28;20479;-58
2022/02/07 00:25:28;;;;;;;7.37;0.90;;;5.50;99.90;;;;;;5072161;28;20203;-57
2022/02/07 00:27:55;;;;;;;5.57;0.90;;;5.40;99.90;;;;;;5073752;28;20606;-57
2022/02/07 00:30:23;;;;;;;5.73;1.00;;;5.40;99.90;;;;;;5074539;28;20737;-58
2022/02/07 00:32:50;;;;;;;4.93;0.80;;;5.40;99.90;;;;;;5072012;28;20241;-56
2022/02/07 00:35:20;;;;;;;4.37;1.43;;;5.40;99.90;;;;;;5073920;28;20595;-57
2022/02/07 00:37:49;;;;;;;5.23;0.83;;;5.40;99.90;;;;;;5072891;28;20622;-56
2022/02/07 00:40:33;;;;;;;6.53;0.97;;;5.40;99.90;;;;;;5073866;28;20203;-55
2022/02/07 00:43:15;;;;;;;2.47;0.90;;;5.40;99.90;;;;;;5069273;28;20592;-55
2022/02/07 00:45:51;;;;;;;4.30;0.50;;;5.40;99.90;;;;;;5073273;28;20239;-56
2022/02/07 00:48:22;;;;;;;5.57;1.10;;;5.40;99.90;;;;;;5074859;28;20199;-55
2022/02/07 00:50:50;;;;;;;4.03;0.97;;;5.40;99.90;;;;;;5069923;28;20201;-55
2022/02/07 00:53:17;;;;;;;3.00;1.07;;;5.40;99.90;;;;;;5072705;28;20752;-57
2022/02/07 00:55:45;;;;;;;4.83;0.93;;;5.40;99.90;;;;;;5051070;28;20205;-55
2022/02/07 00:58:12;;;;;;;6.77;1.53;;;5.30;99.90;;;;;;5074334;28;20220;-56
2022/02/07 01:00:40;;;;;;;6.87;1.30;;;5.20;99.90;;;;;;5072334;28;20731;-56
2022/02/07 01:03:07;;;;;;;4.40;1.50;;;5.20;99.90;;;;;;5065048;28;20237;-56
2022/02/07 01:05:34;;;;;;;4.07;1.10;;;5.10;99.90;;;;;;5073387;28;20755;-58
2022/02/07 01:08:03;;;;;;;5.10;1.00;;;5.10;99.90;;;;;;5080132;28;20670;-55
2022/02/07 01:46:55;;;;;;;7.90;1.30;;;4.80;99.90;;;;;;5078142;28;20491;-56
2022/02/07 01:56:40;;;;;;;4.17;1.40;;;5.00;99.90;;;;;;5077983;28;20782;-57
2022/02/07 01:59:06;;;;;;;4.97;1.37;;;5.00;99.90;;;;;;5077110;28;21289;-57
2022/02/07 02:01:36;;;;;;;7.80;1.50;;;5.00;99.90;;;;;;5077071;28;20618;-57
2022/02/07 02:04:05;;;;;;;4.47;1.00;;;5.00;99.90;;;;;;5080442;28;20222;-59
2022/02/07 02:06:32;;;;;;;6.90;1.37;;;5.00;99.90;;;;;;5078955;28;20257;-59
2022/02/07 02:08:59;;;;;;;8.07;1.97;;;5.00;99.90;;;;;;5077550;28;20233;-60
2022/02/07 02:11:26;;;;;;;7.93;1.30;;;5.00;99.90;;;;;;5075611;28;20562;-60
2022/02/07 02:14:22;;;;;;;5.90;1.17;;;5.00;99.90;;;;;;5077983;28;20678;-60
2022/02/07 02:17:02;;;;;;;9.37;2.20;;;5.10;99.90;;;;;;5078621;28;20812;-59
2022/02/07 02:22:45;;;;;;;10.07;1.60;;;5.00;99.90;;;;;;5074613;28;20309;-60
2022/02/07 02:46:54;;;;;;;4.60;1.60;;;4.90;99.90;;;;;;5073008;28;20738;-58
2022/02/07 02:49:25;;;;;;;7.87;1.10;;;4.90;99.90;;;;;;5069899;28;20651;-58
2022/02/07 02:51:51;;;;;;;9.00;1.40;;;5.00;99.90;;;;;;5047842;28;20678;-60
2022/02/07 02:54:18;;;;;;;6.47;1.43;;;5.00;99.90;;;;;;5056561;28;20295;-59
2022/02/07 02:56:45;;;;;;;4.87;1.27;;;5.00;99.90;;;;;;5056905;28;20190;-60
2022/02/07 02:59:12;;;;;;;7.07;1.50;;;5.00;99.90;;;;;;5062371;28;20289;-61
2022/02/07 03:01:39;;;;;;;6.13;1.77;;;5.00;99.90;;;;;;5062907;28;20245;-56
2022/02/07 03:04:06;;;;;;;6.63;1.63;;;5.00;99.90;;;;;;5069275;28;20195;-59
2022/02/07 03:06:34;;;;;;;10.50;1.33;;;5.00;99.90;;;;;;5066529;28;20641;-59
2022/02/07 03:09:01;;;;;;;5.80;1.20;;;5.10;99.90;;;;;;5058156;28;20273;-60
2022/02/07 03:11:28;;;;;;;7.53;1.87;;;5.10;99.90;;;;;;5073988;28;20294;-59
2022/02/07 03:13:58;;;;;;;12.83;1.50;;;5.10;99.90;;;;;;5069283;28;20312;-58
2022/02/07 03:16:38;;;;;;;7.73;1.50;;;5.10;99.90;;;;;;5056419;28;20333;-58
2022/02/07 03:19:07;;;;;;;7.50;1.20;;;5.00;99.90;;;;;;5058225;28;20217;-59
2022/02/07 03:21:34;;;;;;;7.13;1.27;;;5.10;99.90;;;;;;5076302;28;20227;-61
2022/02/07 03:24:01;;;;;;;7.03;1.17;;;5.10;99.90;;;;;;5060780;28;20206;-58
2022/02/07 03:26:38;;;;;;;6.47;1.33;;;5.20;99.90;;;;;;5075166;28;20206;-58
2022/02/07 03:29:06;;;;;;;14.00;2.00;;;5.20;99.90;;;;;;5073606;28;20653;-58
2022/02/07 03:31:34;;;;;;;5.20;1.80;;;5.30;99.90;;;;;;5074551;28;20267;-59
2022/02/07 03:34:01;;;;;;;6.27;1.50;;;5.30;99.90;;;;;;5072511;28;20761;-59
2022/02/07 03:36:31;;;;;;;7.83;1.57;;;5.30;99.90;;;;;;5068772;28;20408;-59
2022/02/07 03:38:58;;;;;;;12.50;1.80;;;5.40;99.90;;;;;;5053958;28;20198;-60
2022/02/07 03:41:25;;;;;;;4.83;1.27;;;5.40;99.90;;;;;;5060257;28;20621;-57
2022/02/07 03:43:52;;;;;;;7.67;1.87;;;5.50;99.90;;;;;;5067744;28;20566;-60
2022/02/07 03:46:19;;;;;;;5.50;1.47;;;5.50;99.90;;;;;;5060162;28;20207;-59
2022/02/07 03:48:46;;;;;;;7.93;1.73;;;5.50;99.90;;;;;;5073238;28;20613;-59
2022/02/07 03:51:13;;;;;;;9.23;1.73;;;5.50;99.90;;;;;;5070402;28;20274;-59
2022/02/07 03:53:40;;;;;;;7.03;1.60;;;5.50;99.90;;;;;;5071063;28;20279;-60
2022/02/07 03:56:07;;;;;;;10.27;1.47;;;5.50;99.90;;;;;;5068440;28;20202;-60
2022/02/07 03:58:34;;;;;;;9.07;1.63;;;5.40;99.90;;;;;;5073670;28;20202;-60
2022/02/07 04:01:01;;;;;;;10.13;1.67;;;5.50;99.90;;;;;;5073240;28;20241;-59
2022/02/07 04:03:31;;;;;;;8.43;2.00;;;5.50;99.90;;;;;;5072458;28;20206;-59
2022/02/07 04:06:02;;;;;;;8.20;1.57;;;5.50;99.90;;;;;;5069871;28;20325;-59
2022/02/07 04:08:33;;;;;;;5.77;1.50;;;5.50;99.90;;;;;;5054741;28;20205;-58
2022/02/07 04:13:35;;;;;;;9.13;1.50;;;5.60;99.90;;;;;;5073185;28;20252;-59
2022/02/07 04:16:04;;;;;;;11.97;1.83;;;5.60;99.90;;;;;;5071773;28;20288;-57
2022/02/07 04:18:49;;;;;;;6.60;1.43;;;5.60;99.90;;;;;;5072433;28;20236;-58
2022/02/07 04:21:16;;;;;;;9.13;2.30;;;5.60;99.90;;;;;;5072632;28;20206;-57
2022/02/07 04:23:44;;;;;;;8.50;1.47;;;5.60;99.90;;;;;;5070616;28;20781;-58
2022/02/07 04:26:11;;;;;;;20.20;2.40;;;5.70;99.90;;;;;;5071421;28;21196;-56
2022/02/07 04:28:37;;;;;;;11.07;1.60;;;5.80;99.90;;;;;;5071907;28;20734;-57
2022/02/07 04:31:04;;;;;;;5.70;1.37;;;5.80;99.90;;;;;;5072005;28;20609;-57
2022/02/07 04:33:31;;;;;;;9.10;1.37;;;5.80;99.90;;;;;;5058842;28;20316;-57
2022/02/07 04:35:58;;;;;;;10.23;2.40;;;5.80;99.90;;;;;;5068394;28;20258;-57
2022/02/07 04:38:25;;;;;;;8.97;1.53;;;5.80;99.90;;;;;;5074137;28;20298;-57
2022/02/07 04:40:51;;;;;;;10.70;2.10;;;5.90;99.90;;;;;;5070053;28;20380;-57
2022/02/07 04:43:19;;;;;;;13.43;2.23;;;5.90;99.90;;;;;;5075767;28;20298;-56
2022/02/07 04:59:06;;;;;;;10.40;1.83;;;5.90;99.90;;;;;;5074604;28;20240;-57
2022/02/07 05:01:42;;;;;;;9.93;1.90;;;6.00;99.90;;;;;;5072914;28;20283;-56
2022/02/07 05:04:21;;;;;;;10.90;2.13;;;6.00;99.90;;;;;;5060538;28;20469;-56
2022/02/07 05:15:05;;;;;;;10.60;2.10;;;6.10;99.90;;;;;;5071675;28;20225;-56
2022/02/07 05:17:36;;;;;;;10.17;2.53;;;6.00;99.90;;;;;;5073746;28;20256;-56
2022/02/07 05:20:07;;;;;;;7.00;1.90;;;6.00;99.90;;;;;;5070217;28;20281;-57
2022/02/07 05:22:35;;;;;;;7.60;1.60;;;6.00;99.90;;;;;;5076216;28;20337;-56
2022/02/07 05:25:02;;;;;;;11.10;2.40;;;6.00;99.90;;;;;;5072607;28;20297;-57
2022/02/07 05:27:29;;;;;;;8.63;2.20;;;6.00;99.90;;;;;;5071266;28;20308;-60
2022/02/07 05:29:56;;;;;;;11.20;1.80;;;6.10;99.90;;;;;;5073578;28;20279;-56
2022/02/07 05:32:23;;;;;;;9.33;1.93;;;6.10;99.90;;;;;;5076408;28;20890;-57
2022/02/07 05:34:51;;;;;;;7.30;2.10;;;6.10;99.90;;;;;;5072720;28;20354;-56
2022/02/07 05:37:18;;;;;;;14.50;2.03;;;6.10;99.90;;;;;;5073489;28;20274;-55
2022/02/07 05:39:52;;;;;;;10.77;2.10;;;6.10;99.90;;;;;;5070934;28;20224;-56
2022/02/07 05:42:19;;;;;;;10.90;2.33;;;6.10;99.90;;;;;;5071826;28;20223;-55
2022/02/07 05:44:47;;;;;;;12.27;2.20;;;6.10;99.90;;;;;;5070392;28;20754;-58
2022/02/07 05:47:14;;;;;;;11.00;2.20;;;6.00;99.90;;;;;;5070306;28;20486;-57
2022/02/07 05:49:41;;;;;;;8.40;1.83;;;6.10;99.90;;;;;;5056622;28;20339;-57
2022/02/07 05:52:08;;;;;;;14.70;2.47;;;6.10;99.90;;;;;;5070950;28;20277;-57
2022/02/07 05:54:35;;;;;;;13.37;2.10;;;6.00;99.90;;;;;;5076672;28;20729;-57
2022/02/07 05:57:04;;;;;;;7.70;2.07;;;6.00;99.90;;;;;;5061367;28;20641;-56
2022/02/07 05:59:31;;;;;;;10.20;2.07;;;6.00;99.90;;;;;;5074598;28;20200;-56
2022/02/07 06:01:58;;;;;;;11.17;2.07;;;6.00;99.90;;;;;;5071468;28;20225;-57
2022/02/07 06:04:25;;;;;;;4.57;1.97;;;5.90;99.90;;;;;;5065150;28;20286;-57
2022/02/07 06:06:51;;;;;;;8.10;2.17;;;5.80;99.90;;;;;;5071918;28;20211;-57
2022/02/07 06:09:18;;;;;;;11.97;2.67;;;5.70;99.90;;;;;;5054429;28;20582;-56
2022/02/07 06:11:45;;;;;;;5.03;1.43;;;5.70;99.90;;;;;;5073893;28;20227;-57
2022/02/07 06:14:15;;;;;;;12.97;2.20;;;5.70;99.90;;;;;;5070337;28;20311;-57
2022/02/07 06:16:42;;;;;;;12.90;1.73;;;5.70;99.90;;;;;;5072305;28;20241;-57
2022/02/07 06:19:09;;;;;;;5.70;1.90;;;5.70;99.90;;;;;;5056326;28;20201;-57
2022/02/07 06:21:36;;;;;;;16.77;2.20;;;5.70;99.90;;;;;;5075090;28;20206;-57
2022/02/07 06:24:03;;;;;;;10.83;1.63;;;5.70;99.90;;;;;;5073435;28;20205;-55
2022/02/07 06:26:30;;;;;;;7.00;1.40;;;5.60;99.90;;;;;;5076958;28;20213;-57
2022/02/07 06:28:58;;;;;;;10.90;1.77;;;5.70;99.90;;;;;;5074502;28;20212;-57
2022/02/07 06:31:26;;;;;;;7.37;1.97;;;5.60;99.90;;;;;;5073014;28;20209;-57
2022/02/07 06:33:53;;;;;;;14.13;2.67;;;5.60;99.90;;;;;;5078241;28;20693;-57
2022/02/07 06:36:20;;;;;;;8.23;1.90;;;5.60;99.90;;;;;;5075432;28;20200;-57
2022/02/07 06:38:48;;;;;;;7.90;1.60;;;5.60;99.90;;;;;;5076453;28;20205;-56
2022/02/07 06:41:15;;;;;;;18.20;2.33;;;5.60;99.90;;;;;;5074412;28;20205;-56
2022/02/07 06:43:42;;;;;;;13.13;1.77;;;5.60;99.90;;;;;;5071595;28;20292;-56
2022/02/07 06:46:09;;;;;;;9.10;2.60;;;5.60;99.90;;;;;;5074658;28;20278;-56
2022/02/07 06:48:36;;;;;;;8.93;1.37;;;5.60;99.90;;;;;;5078678;28;20192;-56
2022/02/07 06:51:05;;;;;;;9.27;2.10;;;5.60;99.90;;;;;;5074896;28;20201;-56
2022/02/07 06:53:32;;;;;;;9.30;1.97;;;5.60;99.90;;;;;;5071899;28;20279;-56
2022/02/07 06:55:59;;;;;;;6.37;1.80;;;5.70;99.90;;;;;;5074010;28;20707;-56
2022/02/07 06:58:26;;;;;;;13.70;2.00;;;5.70;99.90;;;;;;5070869;28;20200;-56
2022/02/07 07:00:53;;;;;;;9.83;2.40;;;5.80;99.90;;;;;;5063439;28;20204;-57
2022/02/07 07:03:24;;;;;;;12.20;2.83;;;5.80;99.90;;;;;;5071352;28;20594;-56
2022/02/07 07:05:53;;;;;;;10.07;1.70;;;5.80;99.90;;;;;;5074217;28;20209;-57
2022/02/07 07:08:21;;;;;;;20.00;2.53;;;5.80;99.90;;;;;;5074281;28;20299;-56
2022/02/07 07:10:48;;;;;;;11.57;2.23;;;5.80;99.90;;;;;;5073362;28;20345;-57
2022/02/07 07:13:22;;;;;;;10.17;2.00;;;5.80;99.90;;;;;;5071741;28;20207;-57
2022/02/07 07:15:54;;;;;;;14.13;2.17;;;5.90;99.90;;;;;;5072625;28;20248;-56
2022/02/07 07:18:21;;;;;;;10.40;2.33;;;5.90;99.90;;;;;;5061877;28;20289;-57
2022/02/07 07:20:48;;;;;;;11.77;2.10;;;5.90;99.90;;;;;;5056481;28;20223;-57
2022/02/07 07:23:15;;;;;;;7.97;2.00;;;5.90;99.90;;;;;;5076293;28;20244;-57
2022/02/07 07:25:45;;;;;;;7.70;2.70;;;5.90;99.90;;;;;;5079106;28;20249;-57
2022/02/07 07:28:14;;;;;;;8.73;1.80;;;5.90;99.90;;;;;;5084672;28;20729;-58
2022/02/07 07:30:53;;;;;;;7.37;1.40;;;5.80;99.90;;;;;;5061971;28;20205;-60
2022/02/07 07:33:23;;;;;;;10.83;2.40;;;5.90;99.90;;;;;;5075338;28;20230;-60
2022/02/07 07:35:50;;;;;;;10.83;2.70;;;5.90;99.90;;;;;;5078918;28;20634;-57
2022/02/07 07:38:17;;;;;;;11.20;2.10;;;5.90;99.90;;;;;;5080504;28;20248;-57
2022/02/07 07:40:44;;;;;;;16.73;2.67;;;5.80;99.90;;;;;;5080960;28;20226;-60
2022/02/07 07:43:11;;;;;;;13.47;2.13;;;5.80;99.90;;;;;;5069612;28;20206;-57
2022/02/07 07:45:47;;;;;;;12.57;2.43;;;5.90;99.90;;;;;;5085835;28;20264;-57
2022/02/07 07:48:21;;;;;;;9.30;2.93;;;5.90;99.90;;;;;;5085152;28;20761;-57
2022/02/07 07:51:02;;;;;;;16.13;3.60;;;6.00;99.90;;;;;;5085835;28;20237;-57
2022/02/07 08:03:56;;;;;;;13.43;2.43;;;6.10;99.90;;;;;;5073837;28;20214;-58
2022/02/07 08:06:30;;;;;;;14.10;2.47;;;6.10;99.90;;;;;;5065383;28;20214;-57
2022/02/07 08:11:32;;;;;;;13.93;2.57;;;6.20;99.90;;;;;;5083054;28;20202;-56
2022/02/07 08:14:01;;;;;;;8.70;2.27;;;6.20;99.90;;;;;;5080203;28;20413;-57
2022/02/07 08:16:28;;;;;;;15.37;2.40;;;6.30;99.90;;;;;;5079925;28;20719;-58
2022/02/07 08:19:01;;;;;;;14.77;2.87;;;6.30;99.90;;;;;;5054977;28;20271;-58
2022/02/07 08:21:28;;;;;;;15.03;2.60;;;6.40;99.90;;;;;;5073168;28;20224;-58
2022/02/07 08:23:55;;;;;;;15.27;2.53;;;6.40;99.90;;;;;;5068526;28;20287;-57
2022/02/07 08:26:22;;;;;;;13.07;1.93;;;6.40;99.90;;;;;;5072344;28;20289;-57
2022/02/07 08:28:50;;;;;;;9.67;2.00;;;6.40;99.90;;;;;;5077361;28;20217;-57
2022/02/07 08:31:17;;;;;;;14.32;2.20;;;6.50;99.90;;;;;;5056246;28;20818;-55
2022/02/07 08:33:46;;;;;;;9.27;2.37;;;6.40;99.90;;;;;;5071896;28;20647;-54
2022/02/07 08:36:16;;;;;;;8.77;2.27;;;6.40;99.90;;;;;;5071369;28;20669;-55
2022/02/07 08:38:44;;;;;;;8.50;1.80;;;6.60;99.90;;;;;;5057268;28;20650;-55
2022/02/07 08:41:11;;;;;;;10.40;2.00;;;6.80;99.90;;;;;;5072373;28;20260;-55
2022/02/07 08:43:37;;;;;;;14.60;2.70;;;7.10;99.90;;;;;;5069747;28;20256;-55
2022/02/07 08:46:04;;;;;;;8.03;2.03;;;7.10;99.90;;;;;;5075614;28;20592;-56
2022/02/07 08:48:31;;;;;;;9.67;1.90;;;7.30;99.90;;;;;;5079506;28;20203;-55
2022/02/07 08:50:58;;;;;;;10.33;2.03;;;7.40;99.90;;;;;;5071962;28;20674;-55
2022/02/07 08:53:32;;;;;;;13.20;1.83;;;7.60;99.90;;;;;;5066599;28;20227;-57
2022/02/07 08:56:00;;;;;;;6.90;1.97;;;7.50;99.90;;;;;;5068378;28;20711;-55
2022/02/07 08:58:31;;;;;;;17.27;2.90;;;7.40;99.90;;;;;;5074895;28;20194;-57
2022/02/07 09:01:15;;;;;;;6.10;1.77;;;7.50;99.90;;;;;;5075194;28;20573;-56
2022/02/07 09:08:53;;;;;;;14.93;2.23;;;7.20;99.90;;;;;;5075828;28;20205;-55
2022/02/07 09:11:20;;;;;;;11.33;1.80;;;7.00;99.90;;;;;;5074381;28;20238;-54
2022/02/07 09:13:47;;;;;;;7.27;1.90;;;7.00;99.90;;;;;;5051807;28;20290;-55
2022/02/07 09:16:33;;;;;;;9.20;2.23;;;6.90;99.90;;;;;;5067514;28;20684;-54
2022/02/07 09:19:01;;;;;;;7.40;2.37;;;7.30;99.90;;;;;;5066855;28;20614;-55
2022/02/07 09:21:29;;;;;;;13.87;3.37;;;7.80;99.90;;;;;;5065188;28;20749;-54
2022/02/07 09:23:57;;;;;;;6.67;1.87;;;8.00;99.90;;;;;;5069521;28;20253;-55
2022/02/07 09:26:25;;;;;;;11.02;2.45;;;7.90;99.90;;;;;;5080946;28;20486;-56
2022/02/07 09:28:52;;;;;;;11.83;2.57;;;7.80;99.90;;;;;;5062990;28;20650;-57
2022/02/07 09:31:21;;;;;;;9.63;1.70;;;7.30;99.90;;;;;;5080343;28;20194;-56
2022/02/07 09:33:49;;;;;;;11.07;2.27;;;7.30;99.90;;;;;;5080909;28;20203;-57
2022/02/07 09:36:16;;;;;;;7.50;2.13;;;7.20;99.90;;;;;;5058596;28;21032;-56
2022/02/07 09:38:44;;;;;;;12.07;1.80;;;7.20;99.90;;;;;;5061281;28;20199;-57
2022/02/07 09:41:17;;;;;;;9.40;2.13;;;7.10;99.90;;;;;;5078949;28;20866;-56
2022/02/07 09:43:48;;;;;;;7.37;1.73;;;7.00;99.90;;;;;;5080687;28;20647;-56
2022/02/07 09:46:22;;;;;;;10.03;2.00;;;7.20;99.90;;;;;;5060769;28;20499;-56
2022/02/07 09:48:51;;;;;;;5.40;1.43;;;7.20;99.90;;;;;;5081222;28;20206;-57
2022/02/07 09:51:19;;;;;;;10.93;1.47;;;7.30;99.90;;;;;;5076239;28;20213;-57
2022/02/07 09:53:46;;;;;;;6.87;1.77;;;7.30;99.90;;;;;;5061438;28;20244;-57
2022/02/07 09:56:13;;;;;;;7.83;1.90;;;7.40;99.90;;;;;;5062564;28;20295;-57
2022/02/07 09:58:40;;;;;;;9.10;2.10;;;7.50;99.90;;;;;;5075744;28;20272;-58
2022/02/07 10:01:13;;;;;;;7.80;2.10;;;8.20;99.90;;;;;;5074705;28;20205;-57
2022/02/07 10:04:12;;;;;;;8.43;2.10;;;8.70;99.90;;;;;;5060981;28;20272;-57
2022/02/07 10:09:22;;;;;;;15.23;2.40;;;9.00;99.90;;;;;;5077372;28;20227;-57
2022/02/07 10:14:56;;;;;;;16.77;2.23;;;9.40;99.90;;;;;;5082037;28;20198;-58
2022/02/07 10:17:39;;;;;;;11.33;2.10;;;9.20;99.90;;;;;;5079575;28;20634;-58
2022/02/07 10:34:46;;;;;;;13.40;1.67;;;10.00;99.90;;;;;;5081784;28;20207;-57
2022/02/07 10:40:12;;;;;;;11.23;2.00;;;9.50;99.90;;;;;;5074494;28;20605;-57
2022/02/07 10:48:57;;;;;;;8.77;1.83;;;9.20;99.90;;;;;;5077041;28;20791;-56
2022/02/07 10:51:25;;;;;;;8.03;1.30;;;9.60;99.90;;;;;;5075192;28;20278;-56
2022/02/07 10:53:59;;;;;;;7.27;2.07;;;9.20;99.90;;;;;;5069141;28;20955;-56
2022/02/07 10:56:51;;;;;;;4.43;1.10;;;9.30;99.90;;;;;;5081104;28;20815;-57
2022/02/07 10:59:20;;;;;;;11.00;1.93;;;9.40;99.90;;;;;;5077237;28;20689;-56
2022/02/07 11:04:19;;;;;;;8.07;1.60;;;9.30;99.90;;;;;;5076713;28;20211;-57
2022/02/07 11:06:49;;;;;;;7.93;1.70;;;9.50;99.90;;;;;;5078100;28;20369;-57
2022/02/07 11:12:06;;;;;;;10.67;2.40;;;10.00;99.90;;;;;;5074440;28;20694;-57
2022/02/07 11:14:44;;;;;;;5.33;1.43;;;9.60;99.90;;;;;;5075694;28;20207;-58
2022/02/07 11:25:39;;;;;;;8.13;2.30;;;9.70;99.90;;;;;;5059025;28;20258;-57
2022/02/07 11:28:26;;;;;;;9.57;2.03;;;10.00;99.90;;;;;;5062492;28;20453;-58
2022/02/07 11:31:05;;;;;;;6.90;2.03;;;10.50;99.90;;;;;;5052645;28;20559;-57
2022/02/07 11:33:55;;;;;;;4.03;1.20;;;10.40;99.90;;;;;;5060107;28;20279;-58
2022/02/07 11:36:25;;;;;;;14.50;2.30;;;10.70;99.90;;;;;;5060466;28;20226;-58
2022/02/07 11:39:06;;;;;;;10.87;2.10;;;10.30;99.90;;;;;;5063122;28;20201;-58
2022/02/07 11:41:55;;;;;;;9.30;1.60;;;10.30;99.90;;;;;;5059772;28;20752;-58
2022/02/07 11:44:38;;;;;;;12.83;1.83;;;10.10;99.90;;;;;;5060269;28;20645;-58
2022/02/07 11:47:32;;;;;;;10.10;1.80;;;9.80;99.90;;;;;;5061153;28;20721;-57
2022/02/07 11:50:04;;;;;;;5.87;1.60;;;9.70;99.90;;;;;;5059759;28;20614;-58
2022/02/07 11:52:31;;;;;;;9.77;1.70;;;9.70;99.90;;;;;;5063759;28;20226;-57
2022/02/07 11:55:03;;;;;;;7.23;1.70;;;9.50;99.90;;;;;;5062929;28;20223;-56
2022/02/07 11:57:37;;;;;;;10.37;2.17;;;9.20;99.90;;;;;;5037356;28;20240;-57
2022/02/07 12:00:16;;;;;;;8.00;1.83;;;9.10;99.90;;;;;;5056282;28;20204;-57
2022/02/07 12:02:50;;;;;;;13.27;1.67;;;9.00;99.90;;;;;;5057962;28;20191;-57
2022/02/07 12:05:28;;;;;;;9.97;1.90;;;9.40;99.90;;;;;;5057059;28;20204;-57
2022/02/07 12:08:06;;;;;;;7.53;1.97;;;9.50;99.90;;;;;;5059089;28;20837;-57
2022/02/07 12:10:39;;;;;;;11.57;1.67;;;10.10;99.90;;;;;;5037670;28;20589;-58
2022/02/07 12:13:44;;;;;;;7.17;1.80;;;10.70;1.00;;;;;;5060734;28;20209;-58
2022/02/07 12:16:15;;;;;;;11.37;1.40;;;10.70;1.00;;;;;;4977614;28;20301;-58
2022/02/07 12:18:46;;;;;;;9.27;1.30;;;11.10;1.00;;;;;;4972430;28;20207;-58
2022/02/07 12:21:18;;;;;;;9.70;1.53;;;10.80;1.00;;;;;;4969671;28;20245;-57
2022/02/07 12:23:49;;;;;;;7.27;1.70;;;10.60;1.00;;;;;;4970970;28;20285;-58
2022/02/07 12:26:17;;;;;;;4.73;1.67;;;10.90;1.00;;;;;;4976507;28;20212;-58
2022/02/07 12:28:47;;;;;;;8.40;1.73;;;10.70;1.00;;;;;;4968039;28;20302;-58
2022/02/07 12:31:20;;;;;;;5.57;1.20;;;10.90;1.00;;;;;;4972322;28;20377;-58
2022/02/07 12:34:00;;;;;;;6.63;1.70;;;10.80;1.00;;;;;;4963523;28;20216;-58
2022/02/07 12:36:33;;;;;;;5.60;1.60;;;11.00;1.00;;;;;;4976146;28;20258;-58
2022/02/07 12:39:05;;;;;;;10.80;1.30;;;11.00;1.00;;;;;;4968290;28;20379;-58
2022/02/07 12:41:33;;;;;;;7.63;1.57;;;11.20;1.00;;;;;;4955065;28;20235;-58
2022/02/07 12:44:03;;;;;;;8.17;2.40;;;11.80;1.00;;;;;;4976520;28;20467;-58
2022/02/07 12:46:32;;;;;;;5.10;1.30;;;12.10;1.00;;;;;;4974481;28;20201;-58
2022/02/07 12:49:02;;;;;;;7.57;1.20;;;12.40;1.00;;;;;;4977902;28;20908;-59
2022/02/07 12:51:36;;;;;;;6.20;1.57;;;12.60;1.00;;;;;;5055207;28;20296;-57
2022/02/07 12:54:06;;;;;;;7.57;1.70;;;11.50;1.00;;;;;;5057781;28;20216;-58
2022/02/07 12:56:34;;;;;;;3.43;1.33;;;11.40;1.00;;;;;;5056046;28;20222;-58
2022/02/07 12:59:02;;;;;;;3.00;1.17;;;10.70;1.00;;;;;;5055826;28;21040;-59
2022/02/07 13:01:34;;;;;;;8.17;1.40;;;10.70;1.00;;;;;;5059473;28;20958;-58
2022/02/07 13:04:06;;;;;;;6.50;1.50;;;11.00;1.00;;;;;;5054015;28;20220;-58
2022/02/07 13:06:36;;;;;;;11.37;1.70;;;11.30;1.00;;;;;;5063518;28;20253;-58
2022/02/07 13:09:27;;;;;;;6.27;1.37;;;11.40;1.00;;;;;;5063377;28;20298;-58
2022/02/07 13:12:12;;;;;;;6.67;0.97;;;11.20;1.00;;;;;;5063090;28;20241;-58
2022/02/07 13:14:45;;;;;;;4.97;1.20;;;11.00;1.00;;;;;;5060856;28;20234;-58
2022/02/07 13:17:13;;;;;;;6.40;2.57;;;11.20;1.00;;;;;;5057683;28;20320;-58
2022/02/07 13:19:47;;;;;;;3.97;1.00;;;11.50;1.00;;;;;;5061225;28;20399;-58
2022/02/07 13:22:16;;;;;;;6.00;1.40;;;11.20;1.00;;;;;;5060915;28;20360;-58
2022/02/07 13:24:45;;;;;;;4.70;1.20;;;11.20;1.00;;;;;;5063753;28;20239;-58
2022/02/07 13:27:14;;;;;;;3.67;0.93;;;10.60;1.00;;;;;;5062001;28;20643;-55
2022/02/07 13:29:51;;;;;;;6.53;1.30;;;10.20;1.00;;;;;;5062345;28;20219;-58
2022/02/07 13:32:24;;;;;;;4.43;1.23;;;10.00;1.00;;;;;;5063137;28;20225;-58
2022/02/07 13:35:11;;;;;;;4.70;1.07;;;10.10;1.00;;;;;;5060243;28;20205;-58
2022/02/07 13:37:40;;;;;;;4.93;1.07;;;10.40;1.00;;;;;;5056528;28;20203;-58
2022/02/07 13:40:25;;;;;;;3.23;1.20;;;10.30;1.00;;;;;;5058808;28;20590;-59
2022/02/07 13:42:54;;;;;;;5.70;1.10;;;10.40;1.00;;;;;;5063128;28;20333;-58
2022/02/07 13:45:26;;;;;;;6.53;1.20;;;10.60;1.00;;;;;;5062644;28;20199;-59
2022/02/07 13:47:56;;;;;;;6.70;1.40;;;10.60;1.00;;;;;;5060468;28;20299;-58
2022/02/07 13:50:28;;;;;;;8.13;1.30;;;10.30;1.00;;;;;;5054304;28;20281;-58
2022/02/07 13:52:57;;;;;;;6.27;1.30;;;10.10;1.00;;;;;;5055865;28;20206;-57
2022/02/07 13:55:30;;;;;;;5.83;1.37;;;9.90;1.00;;;;;;5059594;28;20462;-56
2022/02/07 13:58:19;;;;;;;6.50;2.00;;;9.60;1.00;;;;;;5058690;28;20217;-56
2022/02/07 14:00:49;;;;;;;2.90;1.10;;;9.20;1.00;;;;;;5060350;28;20637;-57
2022/02/07 14:03:32;;;;;;;2.07;1.10;;;9.50;1.00;;;;;;5062022;28;20647;-56
2022/02/07 14:06:06;;;;;;;3.33;0.90;;;10.00;1.00;;;;;;5045977;28;20203;-56
2022/02/07 14:08:44;;;;;;;3.97;1.13;;;10.10;1.00;;;;;;5039070;28;20205;-56
2022/02/07 14:11:18;;;;;;;5.07;1.10;;;9.90;1.00;;;;;;5057751;28;20206;-56
2022/02/07 14:13:45;;;;;;;6.43;1.00;;;10.00;1.00;;;;;;5062273;28;20240;-56
2022/02/07 14:16:14;;;;;;;5.27;1.40;;;10.20;1.00;;;;;;5061539;28;20220;-56
2022/02/07 14:18:46;;;;;;;5.73;1.10;;;10.00;1.00;;;;;;5071294;28;20240;-56
2022/02/07 14:21:15;;;;;;;5.90;1.00;;;10.00;1.00;;;;;;5077439;28;20192;-58
2022/02/07 14:23:44;;;;;;;5.17;1.40;;;10.20;1.00;;;;;;5075517;28;20204;-58
2022/02/07 14:26:37;;;;;;;4.83;1.23;;;10.10;1.00;;;;;;5074815;28;20319;-57
2022/02/07 14:29:05;;;;;;;5.10;1.17;;;10.10;1.00;;;;;;5077618;28;20200;-56
2022/02/07 14:31:32;;;;;;;6.57;1.40;;;10.40;1.00;;;;;;5077505;28;20203;-56
2022/02/07 14:33:59;;;;;;;3.73;0.70;;;10.60;1.00;;;;;;5076697;28;20203;-58
2022/02/07 14:36:29;;;;;;;2.00;0.77;;;10.30;1.00;;;;;;5074344;28;20551;-57
2022/02/07 14:38:56;;;;;;;4.30;1.33;;;10.10;1.00;;;;;;5078550;28;20248;-56
2022/02/07 14:41:24;;;;;;;6.17;1.40;;;10.10;1.00;;;;;;5074259;28;20635;-57
2022/02/07 14:43:54;;;;;;;6.57;1.20;;;10.30;1.00;;;;;;5043174;28;20200;-57
2022/02/07 14:46:26;;;;;;;5.00;0.90;;;10.50;1.00;;;;;;5069781;28;20562;-58
2022/02/07 14:48:53;;;;;;;5.20;1.13;;;11.00;1.00;;;;;;5073180;28;20229;-57
2022/02/07 14:51:21;;;;;;;4.13;1.50;;;10.40;1.00;;;;;;5050168;28;20214;-57
2022/02/07 14:53:49;;;;;;;4.73;1.00;;;10.70;1.00;;;;;;5062942;28;20202;-57
2022/02/07 14:56:16;;;;;;;4.60;1.27;;;10.60;1.00;;;;;;5068169;28;20304;-56
2022/02/07 14:58:43;;;;;;;3.83;0.70;;;10.70;1.00;;;;;;5078029;28;20580;-57
2022/02/07 15:01:11;;;;;;;7.17;1.03;;;10.80;1.00;;;;;;5071356;28;20294;-57
2022/02/07 15:03:38;;;;;;;4.73;1.17;;;10.50;1.00;;;;;;5063652;28;20329;-57
2022/02/07 15:06:05;;;;;;;6.33;1.73;;;10.60;1.00;;;;;;5058659;28;20721;-57
2022/02/07 15:08:33;;;;;;;3.20;0.80;;;10.40;1.00;;;;;;5069341;28;20292;-57
2022/02/07 15:11:00;;;;;;;2.53;0.97;;;10.70;1.00;;;;;;5074852;28;20617;-56
2022/02/07 15:13:32;;;;;;;5.53;0.80;;;10.60;1.00;;;;;;5076919;28;20208;-57
2022/02/07 15:16:00;;;;;;;2.77;0.80;;;10.60;1.00;;;;;;5071543;28;20232;-56
2022/02/07 15:18:29;;;;;;;5.73;1.00;;;9.90;1.00;;;;;;5073592;28;20234;-57
2022/02/07 15:20:57;;;;;;;2.03;0.80;;;10.20;1.00;;;;;;5063220;28;20523;-56
2022/02/07 15:23:25;;;;;;;4.53;0.77;;;10.20;1.00;;;;;;5074370;28;20225;-56
2022/02/07 15:25:54;;;;;;;4.57;0.87;;;10.30;1.00;;;;;;5074019;28;20203;-57
2022/02/07 15:28:21;;;;;;;4.73;0.90;;;9.50;1.00;;;;;;5072761;28;20210;-57
2022/02/07 15:30:49;;;;;;;3.07;0.80;;;9.70;1.00;;;;;;5078125;28;20900;-56
2022/02/07 15:33:19;;;;;;;2.37;0.70;;;9.60;1.00;;;;;;5076048;28;20392;-57
2022/02/07 15:35:48;;;;;;;3.57;1.17;;;9.70;1.00;;;;;;5062817;28;20631;-57
2022/02/07 15:38:16;;;;;;;5.03;1.00;;;9.90;1.00;;;;;;5052504;28;20246;-57
2022/02/07 15:40:44;;;;;;;4.17;1.00;;;9.60;1.00;;;;;;5063673;28;20237;-57
2022/02/07 15:43:11;;;;;;;4.67;1.10;;;9.60;1.00;;;;;;5047817;28;20512;-57
2022/02/07 15:45:39;;;;;;;7.60;0.97;;;9.70;1.00;;;;;;5064825;28;20205;-58